createdAt,value
2023-05-06T00:00:22.679Z,40.33
2023-05-06T00:02:51.860Z,42.67
2023-05-06T00:05:21.148Z,44.50
2023-05-06T00:07:51.571Z,44.83
2023-05-06T00:10:21.450Z,43.33
2023-05-06T00:12:50.329Z,46.47
2023-05-06T00:15:19.317Z,44.80
2023-05-06T00:17:48.154Z,48.20
2023-05-06T00:20:16.960Z,49.40
2023-05-06T00:22:45.864Z,48.57
2023-05-06T00:25:16.118Z,47.43
2023-05-06T00:27:45.130Z,46.03
2023-05-06T00:30:14.632Z,44.70
2023-05-06T00:32:43.498Z,48.23
2023-05-06T00:35:13.621Z,51.77
2023-05-06T00:37:42.576Z,51.73
2023-05-06T00:40:12.718Z,51.63
2023-05-06T00:42:43.270Z,53.43
2023-05-06T00:45:16.473Z,49.20
2023-05-06T00:47:45.770Z,46.47
2023-05-06T00:50:14.715Z,46.63
2023-05-06T00:52:43.829Z,47.47
2023-05-06T00:55:13.204Z,51.53
2023-05-06T00:57:44.085Z,52.60
2023-05-06T01:00:13.662Z,58.00
2023-05-06T01:02:47.465Z,64.10
2023-05-06T01:05:18.050Z,57.07
2023-05-06T01:07:53.855Z,61.20
2023-05-06T01:10:28.919Z,56.17
2023-05-06T01:13:07.543Z,57.20
2023-05-06T01:15:39.792Z,62.90
2023-05-06T01:18:12.709Z,62.33
2023-05-06T01:20:43.819Z,62.10
2023-05-06T01:23:15.501Z,58.33
2023-05-06T01:25:45.165Z,58.50
2023-05-06T01:28:15.331Z,59.47
2023-05-06T01:30:54.711Z,57.00
2023-05-06T01:33:34.056Z,55.63
2023-05-06T01:36:11.961Z,56.60
2023-05-06T01:38:48.922Z,63.97
2023-05-06T01:41:19.832Z,87.80
2023-05-06T01:43:50.802Z,78.77
2023-05-06T01:46:21.812Z,59.53
2023-05-06T01:48:54.673Z,53.83
2023-05-06T01:51:25.526Z,51.90
2023-05-06T01:53:56.104Z,50.17
2023-05-06T01:56:26.143Z,51.63
2023-05-06T01:58:55.102Z,51.97
2023-05-06T02:01:24.582Z,59.73
2023-05-06T02:03:53.685Z,57.00
2023-05-06T02:06:23.001Z,45.00
2023-05-06T02:08:51.905Z,43.57
2023-05-06T02:11:25.974Z,43.93
2023-05-06T02:14:02.201Z,42.87
2023-05-06T02:16:33.740Z,43.80
2023-05-06T02:19:03.021Z,44.00
2023-05-06T02:21:32.226Z,45.93
2023-05-06T02:24:01.386Z,46.23
2023-05-06T02:26:31.887Z,48.93
2023-05-06T02:29:01.521Z,50.20
2023-05-06T02:31:30.472Z,47.67
2023-05-06T02:33:59.473Z,52.20
2023-05-06T02:36:29.358Z,47.47
2023-05-06T02:38:58.313Z,50.20
2023-05-06T02:41:27.151Z,47.77
2023-05-06T02:43:57.475Z,49.83
2023-05-06T02:46:26.357Z,49.43
2023-05-06T02:48:55.259Z,50.07
2023-05-06T02:51:25.692Z,51.60
2023-05-06T02:53:54.762Z,49.97
2023-05-06T02:56:23.624Z,47.93
2023-05-06T02:58:52.556Z,47.77
2023-05-06T03:01:23.051Z,50.40
2023-05-06T03:03:52.034Z,52.87
2023-05-06T03:06:21.008Z,54.73
2023-05-06T03:09:01.397Z,56.87
2023-05-06T03:11:32.516Z,59.37
2023-05-06T03:14:05.768Z,58.63
2023-05-06T03:16:38.041Z,63.37
2023-05-06T03:19:07.062Z,63.73
2023-05-06T03:21:36.356Z,67.70
2023-05-06T03:24:05.835Z,63.67
2023-05-06T03:26:34.848Z,64.53
2023-05-06T03:29:05.255Z,60.83
2023-05-06T03:31:34.371Z,66.53
2023-05-06T03:34:05.992Z,71.87
2023-05-06T03:36:35.961Z,69.47
2023-05-06T03:39:05.069Z,67.47
2023-05-06T03:41:35.993Z,66.83
2023-05-06T03:44:05.371Z,66.80
2023-05-06T03:46:34.303Z,71.23
2023-05-06T03:49:03.831Z,69.30
2023-05-06T03:51:34.335Z,73.10
2023-05-06T03:54:03.792Z,71.17
2023-05-06T03:56:36.388Z,72.07
2023-05-06T03:59:06.517Z,70.50
2023-05-06T04:01:35.639Z,72.67
2023-05-06T04:04:05.114Z,73.53
2023-05-06T04:06:35.722Z,90.00
2023-05-06T04:09:06.552Z,83.20
2023-05-06T04:11:38.163Z,83.33
2023-05-06T04:14:09.131Z,89.03
2023-05-06T04:16:39.308Z,78.50
2023-05-06T04:19:09.215Z,78.37
2023-05-06T04:21:39.831Z,84.33
2023-05-06T04:24:13.990Z,81.50
2023-05-06T04:27:02.740Z,81.93
2023-05-06T04:29:31.960Z,85.00
2023-05-06T04:32:03.816Z,74.97
2023-05-06T04:34:36.469Z,75.80
2023-05-06T04:37:08.552Z,80.23
2023-05-06T04:39:47.771Z,77.03
2023-05-06T04:42:17.411Z,73.60
2023-05-06T04:44:55.528Z,79.07
2023-05-06T04:47:30.004Z,78.43
2023-05-06T04:49:59.000Z,78.07
2023-05-06T04:52:30.759Z,78.93
2023-05-06T04:54:59.914Z,72.63
2023-05-06T04:57:29.034Z,78.13
2023-05-06T04:59:58.892Z,75.77
2023-05-06T05:02:28.875Z,74.73
2023-05-06T05:04:58.304Z,68.57
2023-05-06T05:07:27.626Z,66.17
2023-05-06T05:09:58.126Z,69.57
2023-05-06T05:12:27.499Z,70.70
2023-05-06T05:14:56.511Z,67.20
2023-05-06T05:17:25.854Z,62.73
2023-05-06T05:19:55.070Z,59.83
2023-05-06T05:22:24.340Z,62.37
2023-05-06T05:24:53.400Z,64.47
2023-05-06T05:27:23.960Z,64.30
2023-05-06T05:29:54.305Z,59.00
2023-05-06T05:32:23.808Z,58.03
2023-05-06T05:34:52.896Z,53.40
2023-05-06T05:37:22.168Z,33.17
2023-05-06T05:39:51.268Z,24.67
2023-05-06T05:42:22.459Z,43.00
2023-05-06T05:44:51.971Z,53.83
2023-05-06T05:47:21.557Z,45.50
2023-05-06T05:49:50.681Z,46.30
2023-05-06T05:52:20.424Z,39.03
2023-05-06T05:54:49.510Z,33.97
2023-05-06T05:57:18.751Z,47.10
2023-05-06T05:59:49.230Z,61.50
2023-05-06T06:02:21.391Z,56.70
2023-05-06T06:04:51.223Z,40.20
2023-05-06T06:07:20.233Z,34.20
2023-05-06T06:09:49.604Z,42.80
2023-05-06T06:12:19.554Z,26.30
2023-05-06T06:14:50.370Z,18.73
2023-05-06T06:17:23.679Z,16.07
2023-05-06T06:19:57.416Z,71.20
2023-05-06T06:22:26.669Z,56.73
2023-05-06T06:24:57.902Z,30.23
2023-05-06T06:27:26.996Z,16.90
2023-05-06T06:29:57.276Z,15.67
2023-05-06T06:32:26.660Z,16.53
2023-05-06T06:34:55.890Z,13.63
2023-05-06T06:37:25.571Z,31.53
2023-05-06T06:39:54.487Z,17.60
2023-05-06T06:42:23.558Z,14.07
2023-05-06T06:45:10.874Z,19.33
2023-05-06T06:47:39.983Z,22.60
2023-05-06T06:50:10.598Z,59.57
2023-05-06T06:52:39.891Z,58.53
2023-05-06T06:55:15.059Z,66.17
2023-05-06T06:57:43.917Z,52.93
2023-05-06T07:00:15.473Z,37.97
2023-05-06T07:02:48.335Z,20.63
2023-05-06T07:05:17.585Z,13.70
2023-05-06T07:08:15.738Z,14.80
2023-05-06T07:10:44.892Z,12.13
2023-05-06T07:13:14.166Z,15.67
2023-05-06T07:15:44.558Z,51.33
2023-05-06T07:18:13.584Z,59.80
2023-05-06T07:20:42.624Z,23.63
2023-05-06T07:23:11.535Z,18.40
2023-05-06T07:25:40.453Z,16.37
2023-05-06T07:28:09.346Z,36.30
2023-05-06T07:30:39.956Z,69.67
2023-05-06T07:33:10.428Z,29.10
2023-05-06T07:35:40.700Z,36.13
2023-05-06T07:38:10.093Z,15.30
2023-05-06T07:40:38.966Z,19.00
2023-05-06T07:43:08.495Z,26.57
2023-05-06T07:45:37.748Z,67.00
2023-05-06T07:48:07.334Z,45.37
2023-05-06T07:50:37.933Z,54.37
2023-05-06T07:53:06.882Z,75.47
2023-05-06T07:55:37.771Z,72.43
2023-05-06T07:58:06.782Z,68.83
2023-05-06T08:00:35.960Z,53.23
2023-05-06T08:03:04.972Z,50.70
2023-05-06T08:05:34.058Z,51.53
2023-05-06T08:08:04.643Z,64.70
2023-05-06T08:10:33.845Z,36.03
2023-05-06T08:13:02.976Z,26.57
2023-05-06T08:15:32.057Z,13.10
2023-05-06T08:18:13.740Z,25.27
2023-05-06T08:20:50.171Z,14.43
2023-05-06T08:23:20.595Z,17.47
2023-05-06T08:25:56.929Z,19.03
2023-05-06T08:28:26.262Z,16.90
2023-05-06T08:30:55.251Z,19.23
2023-05-06T08:33:24.159Z,13.93
2023-05-06T08:35:54.156Z,27.27
2023-05-06T08:38:24.553Z,49.03
2023-05-06T08:40:54.978Z,22.20
2023-05-06T08:43:27.658Z,14.27
2023-05-06T08:45:57.044Z,13.13
2023-05-06T08:48:26.199Z,12.90
2023-05-06T08:50:57.339Z,13.87
2023-05-06T08:53:28.060Z,11.47
2023-05-06T08:55:58.413Z,12.93
2023-05-06T08:58:47.326Z,16.60
2023-05-06T09:01:16.952Z,13.53
2023-05-06T09:03:46.342Z,12.10
2023-05-06T09:06:15.304Z,10.27
2023-05-06T09:08:45.701Z,14.73
2023-05-06T09:11:25.318Z,10.60
2023-05-06T09:14:09.803Z,10.80
2023-05-06T09:16:40.092Z,11.80
2023-05-06T09:19:09.256Z,11.10
2023-05-06T09:21:39.227Z,10.30
2023-05-06T09:24:11.378Z,13.13
2023-05-06T09:26:42.270Z,20.97
2023-05-06T09:29:12.141Z,20.67
2023-05-06T09:31:45.256Z,13.43
2023-05-06T09:34:15.114Z,14.23
2023-05-06T09:36:44.198Z,10.97
2023-05-06T09:39:14.951Z,12.33
2023-05-06T09:41:46.585Z,10.60
2023-05-06T09:44:16.292Z,10.67
2023-05-06T09:46:46.902Z,11.87
2023-05-06T09:49:19.809Z,11.53
2023-05-06T09:51:54.189Z,9.13
2023-05-06T09:54:26.229Z,10.13
2023-05-06T09:56:57.528Z,9.27
2023-05-06T09:59:30.930Z,8.33
2023-05-06T10:02:01.054Z,9.07
2023-05-06T10:04:32.383Z,9.80
2023-05-06T10:07:03.128Z,9.33
2023-05-06T10:09:35.115Z,11.40
2023-05-06T10:12:04.979Z,10.93
2023-05-06T10:14:34.224Z,9.30
2023-05-06T10:17:03.797Z,10.50
2023-05-06T10:19:34.226Z,9.53
2023-05-06T10:22:12.391Z,9.13
2023-05-06T10:24:53.451Z,9.80
2023-05-06T10:27:26.680Z,11.57
2023-05-06T10:30:01.265Z,11.63
2023-05-06T10:32:34.320Z,12.93
2023-05-06T10:35:12.541Z,10.90
2023-05-06T10:37:43.034Z,9.17
2023-05-06T10:40:14.078Z,9.47
2023-05-06T10:42:43.336Z,10.13
2023-05-06T10:45:15.636Z,8.63
2023-05-06T10:48:13.214Z,7.87
2023-05-06T10:50:42.680Z,8.70
2023-05-06T10:53:12.852Z,9.70
2023-05-06T10:55:43.364Z,8.80
2023-05-06T10:58:16.148Z,8.30
2023-05-06T11:00:55.227Z,6.73
2023-05-06T11:03:25.685Z,8.30
2023-05-06T11:05:54.962Z,8.77
2023-05-06T11:08:25.193Z,7.53
2023-05-06T11:10:56.235Z,8.40
2023-05-06T11:13:27.799Z,7.53
2023-05-06T11:15:57.775Z,6.70
2023-05-06T11:18:45.902Z,6.40
2023-05-06T11:21:40.365Z,6.90
2023-05-06T11:24:14.067Z,6.23
2023-05-06T11:26:45.585Z,6.10
2023-05-06T11:29:17.388Z,5.43
2023-05-06T11:31:47.253Z,6.40
2023-05-06T11:34:23.354Z,6.20
2023-05-06T11:37:00.896Z,7.60
2023-05-06T11:39:31.040Z,6.60
2023-05-06T11:42:03.180Z,5.17
2023-05-06T11:44:33.498Z,5.30
2023-05-06T11:47:04.809Z,5.60
2023-05-06T11:49:38.644Z,5.77
2023-05-06T11:52:08.030Z,6.90
2023-05-06T11:54:37.843Z,4.87
2023-05-06T11:57:11.852Z,6.40
2023-05-06T11:59:42.082Z,7.03
2023-05-06T12:02:14.172Z,10.03
2023-05-06T12:04:44.802Z,12.13
2023-05-06T12:07:15.036Z,13.57
2023-05-06T12:09:45.903Z,8.60
2023-05-06T12:12:18.143Z,5.10
2023-05-06T12:14:48.817Z,4.80
2023-05-06T12:17:37.511Z,5.43
2023-05-06T12:20:08.235Z,8.97
2023-05-06T12:22:39.347Z,6.23
2023-05-06T12:25:15.638Z,6.03
2023-05-06T12:27:46.149Z,5.40
2023-05-06T12:30:15.708Z,6.03
2023-05-06T12:33:01.105Z,5.30
2023-05-06T12:35:31.401Z,6.20
2023-05-06T12:38:12.567Z,8.73
2023-05-06T12:40:42.166Z,6.50
2023-05-06T12:43:13.408Z,6.33
2023-05-06T12:45:42.553Z,5.00
2023-05-06T12:48:18.128Z,5.03
2023-05-06T12:50:48.040Z,3.80
2023-05-06T12:53:33.232Z,3.20
2023-05-06T12:56:02.191Z,3.90
2023-05-06T12:58:37.573Z,4.27
2023-05-06T13:01:07.782Z,3.50
2023-05-06T13:03:38.787Z,4.40
2023-05-06T13:06:08.191Z,3.40
2023-05-06T13:08:36.990Z,3.80
2023-05-06T13:11:05.829Z,3.20
2023-05-06T13:13:36.404Z,4.33
2023-05-06T13:16:05.776Z,4.03
2023-05-06T13:18:36.076Z,4.50
2023-05-06T13:21:05.300Z,4.00
2023-05-06T13:23:35.308Z,3.17
2023-05-06T13:26:06.204Z,3.60
2023-05-06T13:28:37.128Z,4.00
2023-05-06T13:31:06.557Z,3.20
2023-05-06T13:33:35.982Z,4.50
2023-05-06T13:36:05.648Z,4.03
2023-05-06T13:38:34.707Z,4.17
2023-05-06T13:41:03.567Z,3.83
2023-05-06T13:43:32.457Z,3.60
2023-05-06T13:46:02.868Z,4.50
2023-05-06T13:48:31.877Z,3.50
2023-05-06T13:51:01.040Z,3.97
2023-05-06T13:53:29.972Z,4.23
2023-05-06T13:56:17.827Z,3.83
2023-05-06T13:58:47.129Z,4.73
2023-05-06T14:01:17.981Z,4.63
2023-05-06T14:03:46.958Z,4.73
2023-05-06T14:06:16.087Z,6.50
2023-05-06T14:08:45.536Z,4.73
2023-05-06T14:11:14.723Z,5.07
2023-05-06T14:13:43.574Z,5.00
2023-05-06T14:16:12.536Z,5.20
2023-05-06T14:18:43.005Z,4.73
2023-05-06T14:21:12.042Z,4.33
2023-05-06T14:23:41.088Z,5.17
2023-05-06T14:26:10.000Z,4.83
2023-05-06T14:28:38.851Z,4.83
2023-05-06T14:31:07.751Z,4.57
2023-05-06T14:33:36.659Z,4.97
2023-05-06T14:36:07.730Z,7.10
2023-05-06T14:38:36.729Z,4.80
2023-05-06T14:41:05.729Z,5.20
2023-05-06T14:43:34.605Z,5.10
2023-05-06T14:46:03.636Z,4.70
2023-05-06T14:48:32.468Z,4.70
2023-05-06T14:51:01.481Z,5.10
2023-05-06T14:53:32.024Z,4.73
2023-05-06T14:56:01.103Z,4.63
2023-05-06T14:58:30.004Z,4.60
2023-05-06T15:00:59.049Z,4.67
2023-05-06T15:03:46.778Z,5.50
2023-05-06T15:06:15.759Z,4.97
2023-05-06T15:08:46.200Z,5.07
2023-05-06T15:11:15.258Z,4.97
2023-05-06T15:13:44.153Z,4.87
2023-05-06T15:16:13.239Z,4.67
2023-05-06T15:18:43.088Z,4.70
2023-05-06T15:21:13.500Z,5.00
2023-05-06T15:23:42.527Z,5.60
2023-05-06T15:26:12.754Z,3.90
2023-05-06T15:28:41.682Z,5.10
2023-05-06T15:31:11.132Z,4.47
2023-05-06T15:33:40.105Z,4.93
2023-05-06T15:36:09.778Z,5.10
2023-05-06T15:39:00.379Z,5.07
2023-05-06T15:41:33.101Z,5.10
2023-05-06T15:44:03.316Z,4.30
2023-05-06T15:46:33.348Z,5.77
2023-05-06T15:49:31.972Z,6.20
2023-05-06T15:51:51.960Z,5.97
2023-05-06T15:54:20.880Z,5.80
2023-05-06T15:56:51.293Z,5.10
2023-05-06T15:59:20.498Z,5.40
2023-05-06T16:04:21.459Z,4.67
2023-05-06T16:06:50.798Z,5.97
2023-05-06T16:09:19.724Z,4.60
2023-05-06T16:11:48.645Z,5.40
2023-05-06T16:14:18.899Z,5.33
2023-05-06T16:16:47.799Z,5.27
2023-05-06T16:19:17.229Z,5.50
2023-05-06T16:21:46.064Z,5.33
2023-05-06T16:24:15.194Z,5.57
2023-05-06T16:26:44.258Z,4.87
2023-05-06T16:29:13.217Z,5.80
2023-05-06T16:31:43.656Z,5.73
2023-05-06T16:34:15.511Z,5.30
2023-05-06T16:36:46.325Z,5.40
2023-05-06T16:39:15.861Z,4.97
2023-05-06T16:41:45.063Z,5.20
2023-05-06T16:44:14.303Z,5.67
2023-05-06T16:46:46.449Z,7.70
2023-05-06T16:49:16.303Z,6.23
2023-05-06T16:51:49.966Z,6.00
2023-05-06T16:54:20.236Z,5.50
2023-05-06T16:56:52.545Z,6.30
2023-05-06T16:59:23.379Z,5.70
2023-05-06T17:01:58.024Z,5.63
2023-05-06T17:04:27.334Z,5.90
2023-05-06T17:06:56.652Z,6.90
2023-05-06T17:09:25.984Z,6.00
2023-05-06T17:11:54.938Z,6.23
2023-05-06T17:14:24.136Z,6.50
2023-05-06T17:16:54.606Z,8.00
2023-05-06T17:19:23.512Z,7.33
2023-05-06T17:21:52.511Z,8.00
2023-05-06T17:24:21.371Z,7.67
2023-05-06T17:26:50.268Z,7.97
2023-05-06T17:29:22.227Z,7.37
2023-05-06T17:31:51.664Z,6.37
2023-05-06T17:36:56.121Z,7.20
2023-05-06T17:39:24.988Z,6.77
2023-05-06T17:41:54.475Z,7.73
2023-05-06T17:44:23.527Z,6.97
2023-05-06T17:46:52.405Z,6.83
2023-05-06T17:49:23.272Z,7.50
2023-05-06T17:51:52.384Z,7.07
2023-05-06T17:54:21.423Z,7.90
2023-05-06T17:56:53.128Z,8.20
2023-05-06T17:59:25.272Z,7.80
2023-05-06T18:01:55.362Z,7.67
2023-05-06T18:04:25.876Z,8.27
2023-05-06T18:06:54.900Z,7.30
2023-05-06T18:09:23.855Z,7.67
2023-05-06T18:11:53.280Z,7.47
2023-05-06T18:14:22.224Z,7.57
2023-05-06T18:16:51.063Z,7.80
2023-05-06T18:19:20.120Z,10.10
2023-05-06T18:21:50.548Z,8.77
2023-05-06T18:24:19.933Z,8.30
2023-05-06T18:26:48.861Z,7.17
2023-05-06T18:29:17.704Z,8.27
2023-05-06T18:31:46.824Z,8.83
2023-05-06T18:34:15.769Z,8.17
2023-05-06T18:36:44.631Z,8.43
2023-05-06T18:39:15.594Z,10.27
2023-05-06T18:41:44.668Z,10.53
2023-05-06T18:44:13.604Z,9.83
2023-05-06T18:46:42.981Z,9.13
2023-05-06T18:49:14.293Z,8.33
2023-05-06T18:51:43.419Z,8.60
2023-05-06T18:54:14.237Z,8.23
2023-05-06T18:56:46.857Z,8.37
2023-05-06T18:59:34.018Z,8.77
2023-05-06T19:02:03.854Z,8.80
2023-05-06T19:04:33.789Z,9.70
2023-05-06T19:07:03.215Z,9.40
2023-05-06T19:09:36.963Z,9.67
2023-05-06T19:12:07.748Z,10.90
2023-05-06T19:14:36.632Z,10.00
2023-05-06T19:17:06.841Z,10.03
2023-05-06T19:19:36.178Z,11.20
2023-05-06T19:22:05.155Z,10.50
2023-05-06T19:24:33.993Z,9.77
2023-05-06T19:27:03.245Z,9.83
2023-05-06T19:29:34.407Z,12.07
2023-05-06T19:32:03.821Z,12.07
2023-05-06T19:34:32.862Z,10.57
2023-05-06T19:37:01.688Z,11.07
2023-05-06T19:39:30.579Z,12.13
2023-05-06T19:41:59.561Z,11.60
2023-05-06T19:44:28.405Z,10.90
2023-05-06T19:47:12.996Z,11.47
2023-05-06T19:49:42.197Z,16.43
2023-05-06T19:52:11.227Z,33.87
2023-05-06T19:54:40.578Z,28.63
2023-05-06T19:57:09.600Z,15.17
2023-05-06T19:59:38.735Z,12.60
2023-05-06T20:02:13.902Z,11.73
2023-05-06T20:04:43.014Z,10.13
2023-05-06T20:07:12.716Z,11.77
2023-05-06T20:09:42.002Z,15.37
2023-05-06T20:12:11.488Z,15.37
2023-05-06T20:14:40.548Z,17.30
2023-05-06T20:17:11.216Z,16.33
2023-05-06T20:19:40.268Z,32.67
2023-05-06T20:22:09.796Z,24.77
2023-05-06T20:24:39.383Z,23.23
2023-05-06T20:27:08.772Z,24.33
2023-05-06T20:29:37.703Z,24.17
2023-05-06T20:32:07.135Z,22.13
2023-05-06T20:34:56.044Z,20.77
2023-05-06T20:37:25.786Z,22.23
2023-05-06T20:39:55.202Z,19.30
2023-05-06T20:42:24.222Z,16.03
2023-05-06T20:44:53.595Z,23.10
2023-05-06T20:47:22.589Z,20.40
2023-05-06T20:49:51.503Z,21.50
2023-05-06T20:52:22.588Z,23.90
2023-05-06T20:54:55.273Z,20.13
2023-05-06T20:57:24.803Z,19.10
2023-05-06T20:59:53.736Z,17.80
2023-05-06T21:02:22.745Z,16.63
2023-05-06T21:04:52.082Z,16.80
2023-05-06T21:07:22.482Z,15.80
2023-05-06T21:09:51.640Z,14.40
2023-05-06T21:12:20.531Z,14.83
2023-05-06T21:14:49.743Z,15.83
2023-05-06T21:17:19.280Z,15.40
2023-05-06T21:19:48.792Z,13.83
2023-05-06T21:22:18.487Z,13.70
2023-05-06T21:24:49.966Z,12.07
2023-05-06T21:27:19.020Z,12.90
2023-05-06T21:29:48.063Z,12.50
2023-05-06T21:32:16.960Z,14.63
2023-05-06T21:34:45.968Z,16.83
2023-05-06T21:37:15.053Z,17.53
2023-05-06T21:39:44.405Z,25.33
2023-05-06T21:42:16.654Z,28.77
2023-05-06T21:44:45.693Z,26.33
2023-05-06T21:47:14.607Z,26.97
2023-05-06T21:49:43.496Z,34.17
2023-05-06T21:52:12.506Z,33.63
2023-05-06T21:54:41.367Z,38.27
2023-05-06T21:57:12.656Z,35.67
2023-05-06T21:59:43.109Z,30.00
2023-05-06T22:02:12.177Z,29.20
2023-05-06T22:04:41.145Z,29.83
2023-05-06T22:07:10.047Z,34.60
2023-05-06T22:09:39.322Z,34.10
2023-05-06T22:12:09.580Z,36.60
2023-05-06T22:14:41.612Z,31.53
2023-05-06T22:17:20.801Z,29.13
2023-05-06T22:19:50.653Z,23.90
2023-05-06T22:22:20.178Z,21.60
2023-05-06T22:24:49.576Z,19.10
2023-05-06T22:27:18.416Z,17.47
2023-05-06T22:29:47.339Z,16.73
2023-05-06T22:32:22.934Z,17.20
2023-05-06T22:34:52.136Z,15.97
2023-05-06T22:37:21.963Z,18.10
2023-05-06T22:39:53.224Z,25.63
2023-05-06T22:42:26.712Z,20.70
2023-05-06T22:44:55.636Z,23.20
2023-05-06T22:47:25.968Z,29.10
2023-05-06T22:49:54.834Z,29.07
2023-05-06T22:52:25.543Z,34.60
2023-05-06T22:54:55.228Z,33.17
2023-05-06T22:57:25.493Z,30.13
2023-05-06T22:59:54.464Z,23.93
2023-05-06T23:02:24.903Z,27.50
2023-05-06T23:04:53.803Z,30.33
2023-05-06T23:07:22.691Z,30.63
2023-05-06T23:09:51.631Z,36.60
2023-05-06T23:12:20.722Z,35.60
2023-05-06T23:14:49.624Z,35.57
2023-05-06T23:17:18.746Z,37.43
2023-05-06T23:19:49.039Z,37.03
2023-05-06T23:22:17.994Z,46.47
2023-05-06T23:24:47.023Z,40.27
2023-05-06T23:27:15.916Z,30.67
2023-05-06T23:29:44.982Z,31.80
2023-05-06T23:32:13.825Z,32.80
2023-05-06T23:34:42.770Z,35.77
2023-05-06T23:37:13.227Z,38.60
2023-05-06T23:39:42.119Z,37.53
2023-05-06T23:42:11.338Z,31.87
2023-05-06T23:44:40.203Z,26.17
2023-05-06T23:47:09.101Z,21.70
2023-05-06T23:49:38.078Z,21.43
2023-05-06T23:52:07.244Z,22.17
2023-05-06T23:54:37.836Z,20.87
2023-05-06T23:57:06.788Z,21.50
2023-05-06T23:59:35.585Z,20.87
